sensor_id;sensor_type;location;lat;lon;timestamp;P1;durP1;ratioP1;P2;durP2;ratioP2
19189;SDS011;9727;50.200;19.038;2023-04-06T00:00:13;50.63;;;19.57;;
19189;SDS011;9727;50.200;19.038;2023-04-06T00:02:41;44.80;;;19.43;;
19189;SDS011;9727;50.200;19.038;2023-04-06T00:05:07;43.27;;;18.80;;
19189;SDS011;9727;50.200;19.038;2023-04-06T00:07:34;49.67;;;19.97;;
19189;SDS011;9727;50.200;19.038;2023-04-06T00:10:01;45.50;;;19.60;;
19189;SDS011;9727;50.200;19.038;2023-04-06T00:12:28;49.27;;;19.77;;
19189;SDS011;9727;50.200;19.038;2023-04-06T00:14:54;43.87;;;19.37;;
19189;SDS011;9727;50.200;19.038;2023-04-06T00:17:21;47.53;;;19.53;;
19189;SDS011;9727;50.200;19.038;2023-04-06T00:19:49;46.37;;;20.23;;
19189;SDS011;9727;50.200;19.038;2023-04-06T00:22:15;40.93;;;19.40;;
19189;SDS011;9727;50.200;19.038;2023-04-06T00:24:42;50.57;;;20.27;;
19189;SDS011;9727;50.200;19.038;2023-04-06T00:27:08;46.67;;;20.80;;
19189;SDS011;9727;50.200;19.038;2023-04-06T00:29:35;47.73;;;20.60;;
19189;SDS011;9727;50.200;19.038;2023-04-06T00:32:03;47.00;;;21.03;;
19189;SDS011;9727;50.200;19.038;2023-04-06T00:34:30;57.20;;;21.57;;
19189;SDS011;9727;50.200;19.038;2023-04-06T00:37:04;55.50;;;23.27;;
19189;SDS011;9727;50.200;19.038;2023-04-06T00:39:42;54.50;;;22.33;;
19189;SDS011;9727;50.200;19.038;2023-04-06T00:42:10;64.17;;;24.30;;
19189;SDS011;9727;50.200;19.038;2023-04-06T00:44:40;58.10;;;24.77;;
19189;SDS011;9727;50.200;19.038;2023-04-06T00:47:10;60.30;;;25.57;;
19189;SDS011;9727;50.200;19.038;2023-04-06T00:49:36;56.90;;;25.63;;
19189;SDS011;9727;50.200;19.038;2023-04-06T00:52:07;59.20;;;25.30;;
19189;SDS011;9727;50.200;19.038;2023-04-06T00:54:34;51.97;;;24.07;;
19189;SDS011;9727;50.200;19.038;2023-04-06T00:57:01;55.93;;;24.43;;
19189;SDS011;9727;50.200;19.038;2023-04-06T00:59:27;50.37;;;22.80;;
19189;SDS011;9727;50.200;19.038;2023-04-06T01:01:55;53.93;;;21.90;;
19189;SDS011;9727;50.200;19.038;2023-04-06T01:04:21;50.73;;;21.53;;
19189;SDS011;9727;50.200;19.038;2023-04-06T01:06:51;51.40;;;21.97;;
19189;SDS011;9727;50.200;19.038;2023-04-06T01:09:19;55.23;;;20.60;;
19189;SDS011;9727;50.200;19.038;2023-04-06T01:11:46;48.77;;;20.70;;
19189;SDS011;9727;50.200;19.038;2023-04-06T01:14:12;47.80;;;21.17;;
19189;SDS011;9727;50.200;19.038;2023-04-06T01:16:39;54.53;;;20.67;;
19189;SDS011;9727;50.200;19.038;2023-04-06T01:19:09;48.70;;;20.47;;
19189;SDS011;9727;50.200;19.038;2023-04-06T01:21:40;42.13;;;19.27;;
19189;SDS011;9727;50.200;19.038;2023-04-06T01:24:09;52.37;;;20.43;;
19189;SDS011;9727;50.200;19.038;2023-04-06T01:26:36;53.00;;;20.87;;
19189;SDS011;9727;50.200;19.038;2023-04-06T01:29:13;46.73;;;19.30;;
19189;SDS011;9727;50.200;19.038;2023-04-06T01:31:40;45.97;;;18.80;;
19189;SDS011;9727;50.200;19.038;2023-04-06T01:34:07;42.83;;;18.20;;
19189;SDS011;9727;50.200;19.038;2023-04-06T01:36:33;43.07;;;19.17;;
19189;SDS011;9727;50.200;19.038;2023-04-06T01:39:00;37.13;;;17.73;;
19189;SDS011;9727;50.200;19.038;2023-04-06T01:41:28;41.97;;;17.80;;
19189;SDS011;9727;50.200;19.038;2023-04-06T01:43:54;39.53;;;17.23;;
19189;SDS011;9727;50.200;19.038;2023-04-06T01:46:21;37.13;;;16.83;;
19189;SDS011;9727;50.200;19.038;2023-04-06T01:48:47;34.83;;;17.13;;
19189;SDS011;9727;50.200;19.038;2023-04-06T01:51:14;33.80;;;17.00;;
19189;SDS011;9727;50.200;19.038;2023-04-06T01:53:41;34.20;;;16.23;;
19189;SDS011;9727;50.200;19.038;2023-04-06T01:56:07;35.67;;;16.97;;
19189;SDS011;9727;50.200;19.038;2023-04-06T01:58:44;33.33;;;16.63;;
19189;SDS011;9727;50.200;19.038;2023-04-06T02:01:11;36.13;;;16.13;;
19189;SDS011;9727;50.200;19.038;2023-04-06T02:03:38;35.67;;;16.70;;
19189;SDS011;9727;50.200;19.038;2023-04-06T02:06:05;37.63;;;17.07;;
19189;SDS011;9727;50.200;19.038;2023-04-06T02:08:31;40.30;;;16.53;;
19189;SDS011;9727;50.200;19.038;2023-04-06T02:11:00;41.97;;;17.23;;
19189;SDS011;9727;50.200;19.038;2023-04-06T02:13:26;38.63;;;17.53;;
19189;SDS011;9727;50.200;19.038;2023-04-06T02:15:54;37.17;;;16.60;;
19189;SDS011;9727;50.200;19.038;2023-04-06T02:18:22;35.87;;;17.57;;
19189;SDS011;9727;50.200;19.038;2023-04-06T02:20:51;31.57;;;16.07;;
19189;SDS011;9727;50.200;19.038;2023-04-06T02:23:17;30.30;;;15.77;;
19189;SDS011;9727;50.200;19.038;2023-04-06T02:25:44;35.10;;;15.60;;
19189;SDS011;9727;50.200;19.038;2023-04-06T02:28:10;30.97;;;15.20;;
19189;SDS011;9727;50.200;19.038;2023-04-06T02:30:38;36.37;;;16.43;;
19189;SDS011;9727;50.200;19.038;2023-04-06T02:33:06;38.17;;;17.70;;
19189;SDS011;9727;50.200;19.038;2023-04-06T02:35:33;35.30;;;17.33;;
19189;SDS011;9727;50.200;19.038;2023-04-06T02:38:00;32.50;;;16.03;;
19189;SDS011;9727;50.200;19.038;2023-04-06T02:40:45;33.00;;;16.37;;
19189;SDS011;9727;50.200;19.038;2023-04-06T02:43:12;39.30;;;16.80;;
19189;SDS011;9727;50.200;19.038;2023-04-06T02:45:38;38.13;;;16.47;;
19189;SDS011;9727;50.200;19.038;2023-04-06T02:48:07;43.93;;;19.13;;
19189;SDS011;9727;50.200;19.038;2023-04-06T02:50:33;42.20;;;19.63;;
19189;SDS011;9727;50.200;19.038;2023-04-06T02:53:00;45.93;;;21.80;;
19189;SDS011;9727;50.200;19.038;2023-04-06T02:55:26;49.50;;;21.70;;
19189;SDS011;9727;50.200;19.038;2023-04-06T02:57:53;45.43;;;22.70;;
19189;SDS011;9727;50.200;19.038;2023-04-06T03:00:19;47.07;;;23.17;;
19189;SDS011;9727;50.200;19.038;2023-04-06T03:02:46;55.60;;;24.57;;
19189;SDS011;9727;50.200;19.038;2023-04-06T03:05:14;57.73;;;24.87;;
19189;SDS011;9727;50.200;19.038;2023-04-06T03:07:40;57.93;;;23.17;;
19189;SDS011;9727;50.200;19.038;2023-04-06T03:10:07;54.13;;;22.67;;
19189;SDS011;9727;50.200;19.038;2023-04-06T03:12:34;49.97;;;22.73;;
19189;SDS011;9727;50.200;19.038;2023-04-06T03:15:01;49.33;;;21.93;;
19189;SDS011;9727;50.200;19.038;2023-04-06T03:17:27;44.70;;;21.37;;
19189;SDS011;9727;50.200;19.038;2023-04-06T03:19:54;47.67;;;21.27;;
19189;SDS011;9727;50.200;19.038;2023-04-06T03:22:22;46.03;;;20.43;;
19189;SDS011;9727;50.200;19.038;2023-04-06T03:24:52;47.23;;;21.90;;
19189;SDS011;9727;50.200;19.038;2023-04-06T03:27:19;45.07;;;21.50;;
19189;SDS011;9727;50.200;19.038;2023-04-06T03:29:45;48.33;;;21.23;;
19189;SDS011;9727;50.200;19.038;2023-04-06T03:32:12;40.23;;;18.77;;
19189;SDS011;9727;50.200;19.038;2023-04-06T03:34:38;42.60;;;18.90;;
19189;SDS011;9727;50.200;19.038;2023-04-06T03:37:05;43.20;;;18.97;;
19189;SDS011;9727;50.200;19.038;2023-04-06T03:39:33;43.77;;;19.07;;
19189;SDS011;9727;50.200;19.038;2023-04-06T03:42:00;41.50;;;18.50;;
19189;SDS011;9727;50.200;19.038;2023-04-06T03:44:26;42.20;;;19.43;;
19189;SDS011;9727;50.200;19.038;2023-04-06T03:46:53;42.93;;;19.13;;
19189;SDS011;9727;50.200;19.038;2023-04-06T03:49:20;44.43;;;20.83;;
19189;SDS011;9727;50.200;19.038;2023-04-06T03:51:46;46.43;;;21.63;;
19189;SDS011;9727;50.200;19.038;2023-04-06T03:54:13;53.97;;;24.73;;
19189;SDS011;9727;50.200;19.038;2023-04-06T03:56:41;60.73;;;32.37;;
19189;SDS011;9727;50.200;19.038;2023-04-06T03:59:07;76.43;;;35.33;;
19189;SDS011;9727;50.200;19.038;2023-04-06T04:01:34;89.00;;;45.50;;
19189;SDS011;9727;50.200;19.038;2023-04-06T04:04:00;141.67;;;72.30;;
19189;SDS011;9727;50.200;19.038;2023-04-06T04:06:27;163.13;;;80.87;;
19189;SDS011;9727;50.200;19.038;2023-04-06T04:08:53;151.87;;;71.23;;
19189;SDS011;9727;50.200;19.038;2023-04-06T04:11:20;110.77;;;48.63;;
19189;SDS011;9727;50.200;19.038;2023-04-06T04:13:48;284.00;;;108.83;;
19189;SDS011;9727;50.200;19.038;2023-04-06T04:16:14;250.13;;;99.27;;
19189;SDS011;9727;50.200;19.038;2023-04-06T04:18:41;422.03;;;138.40;;
19189;SDS011;9727;50.200;19.038;2023-04-06T04:21:08;511.77;;;173.50;;
19189;SDS011;9727;50.200;19.038;2023-04-06T04:23:35;563.77;;;199.80;;
19189;SDS011;9727;50.200;19.038;2023-04-06T04:26:01;590.47;;;192.13;;
19189;SDS011;9727;50.200;19.038;2023-04-06T04:28:31;583.13;;;164.70;;
19189;SDS011;9727;50.200;19.038;2023-04-06T04:30:59;503.90;;;128.50;;
19189;SDS011;9727;50.200;19.038;2023-04-06T04:33:25;416.57;;;129.33;;
19189;SDS011;9727;50.200;19.038;2023-04-06T04:35:52;462.17;;;143.23;;
19189;SDS011;9727;50.200;19.038;2023-04-06T04:38:19;440.67;;;124.43;;
19189;SDS011;9727;50.200;19.038;2023-04-06T04:40:45;386.87;;;105.83;;
19189;SDS011;9727;50.200;19.038;2023-04-06T04:43:12;351.97;;;95.07;;
19189;SDS011;9727;50.200;19.038;2023-04-06T04:45:38;307.23;;;87.57;;
19189;SDS011;9727;50.200;19.038;2023-04-06T04:48:06;275.77;;;81.87;;
19189;SDS011;9727;50.200;19.038;2023-04-06T04:50:33;217.93;;;69.20;;
19189;SDS011;9727;50.200;19.038;2023-04-06T04:53:00;189.20;;;66.03;;
19189;SDS011;9727;50.200;19.038;2023-04-06T04:55:27;158.03;;;59.87;;
19189;SDS011;9727;50.200;19.038;2023-04-06T04:57:54;134.90;;;53.87;;
19189;SDS011;9727;50.200;19.038;2023-04-06T05:00:21;137.05;;;65.85;;
19189;SDS011;9727;50.200;19.038;2023-04-06T05:02:50;80.13;;;36.13;;
19189;SDS011;9727;50.200;19.038;2023-04-06T05:05:18;65.30;;;30.50;;
19189;SDS011;9727;50.200;19.038;2023-04-06T05:07:45;63.73;;;31.10;;
19189;SDS011;9727;50.200;19.038;2023-04-06T05:10:12;62.53;;;30.23;;
19189;SDS011;9727;50.200;19.038;2023-04-06T05:12:42;58.37;;;27.80;;
19189;SDS011;9727;50.200;19.038;2023-04-06T05:15:09;49.67;;;26.00;;
19189;SDS011;9727;50.200;19.038;2023-04-06T05:17:35;48.43;;;22.67;;
19189;SDS011;9727;50.200;19.038;2023-04-06T05:20:04;64.63;;;28.57;;
19189;SDS011;9727;50.200;19.038;2023-04-06T05:22:32;127.00;;;44.13;;
19189;SDS011;9727;50.200;19.038;2023-04-06T05:25:06;101.60;;;36.67;;
19189;SDS011;9727;50.200;19.038;2023-04-06T05:27:33;138.90;;;43.43;;
19189;SDS011;9727;50.200;19.038;2023-04-06T05:30:00;169.17;;;48.93;;
19189;SDS011;9727;50.200;19.038;2023-04-06T05:32:27;134.93;;;43.63;;
19189;SDS011;9727;50.200;19.038;2023-04-06T05:34:54;159.40;;;44.97;;
19189;SDS011;9727;50.200;19.038;2023-04-06T05:37:21;188.37;;;51.20;;
19189;SDS011;9727;50.200;19.038;2023-04-06T05:39:49;165.07;;;49.07;;
19189;SDS011;9727;50.200;19.038;2023-04-06T05:42:16;175.20;;;53.27;;
19189;SDS011;9727;50.200;19.038;2023-04-06T05:44:42;156.83;;;48.73;;
19189;SDS011;9727;50.200;19.038;2023-04-06T05:47:09;135.10;;;42.70;;
19189;SDS011;9727;50.200;19.038;2023-04-06T05:49:36;161.57;;;49.53;;
19189;SDS011;9727;50.200;19.038;2023-04-06T05:52:05;118.43;;;41.03;;
19189;SDS011;9727;50.200;19.038;2023-04-06T05:54:32;100.03;;;36.03;;
19189;SDS011;9727;50.200;19.038;2023-04-06T05:57:00;75.43;;;29.77;;
19189;SDS011;9727;50.200;19.038;2023-04-06T05:59:28;75.13;;;28.37;;
19189;SDS011;9727;50.200;19.038;2023-04-06T06:01:54;67.10;;;28.30;;
19189;SDS011;9727;50.200;19.038;2023-04-06T06:04:21;49.60;;;24.57;;
19189;SDS011;9727;50.200;19.038;2023-04-06T06:06:47;48.53;;;23.60;;
19189;SDS011;9727;50.200;19.038;2023-04-06T06:09:14;57.20;;;25.50;;
19189;SDS011;9727;50.200;19.038;2023-04-06T06:11:41;46.13;;;21.83;;
19189;SDS011;9727;50.200;19.038;2023-04-06T06:14:09;48.90;;;22.47;;
19189;SDS011;9727;50.200;19.038;2023-04-06T06:16:36;45.43;;;20.83;;
19189;SDS011;9727;50.200;19.038;2023-04-06T06:19:05;42.63;;;19.27;;
19189;SDS011;9727;50.200;19.038;2023-04-06T06:21:32;43.57;;;19.70;;
19189;SDS011;9727;50.200;19.038;2023-04-06T06:24:01;36.73;;;19.57;;
19189;SDS011;9727;50.200;19.038;2023-04-06T06:26:27;45.60;;;20.53;;
19189;SDS011;9727;50.200;19.038;2023-04-06T06:28:54;42.57;;;20.37;;
19189;SDS011;9727;50.200;19.038;2023-04-06T06:31:22;36.07;;;18.37;;
19189;SDS011;9727;50.200;19.038;2023-04-06T06:33:51;36.70;;;18.43;;
19189;SDS011;9727;50.200;19.038;2023-04-06T06:36:19;35.03;;;17.30;;
19189;SDS011;9727;50.200;19.038;2023-04-06T06:38:46;36.60;;;18.43;;
19189;SDS011;9727;50.200;19.038;2023-04-06T06:41:12;30.27;;;16.80;;
19189;SDS011;9727;50.200;19.038;2023-04-06T06:43:39;33.00;;;17.33;;
19189;SDS011;9727;50.200;19.038;2023-04-06T06:46:05;29.93;;;16.43;;
19189;SDS011;9727;50.200;19.038;2023-04-06T06:48:33;26.50;;;14.17;;
19189;SDS011;9727;50.200;19.038;2023-04-06T06:51:00;24.73;;;14.40;;
19189;SDS011;9727;50.200;19.038;2023-04-06T06:53:27;27.20;;;14.97;;
19189;SDS011;9727;50.200;19.038;2023-04-06T06:55:53;25.13;;;13.27;;
19189;SDS011;9727;50.200;19.038;2023-04-06T06:58:21;30.10;;;13.10;;
19189;SDS011;9727;50.200;19.038;2023-04-06T07:00:47;27.83;;;11.63;;
19189;SDS011;9727;50.200;19.038;2023-04-06T07:03:14;22.40;;;10.80;;
19189;SDS011;9727;50.200;19.038;2023-04-06T07:05:46;30.17;;;11.67;;
19189;SDS011;9727;50.200;19.038;2023-04-06T07:08:18;27.13;;;10.80;;
19189;SDS011;9727;50.200;19.038;2023-04-06T07:10:45;20.87;;;8.80;;
19189;SDS011;9727;50.200;19.038;2023-04-06T07:13:12;15.90;;;8.07;;
19189;SDS011;9727;50.200;19.038;2023-04-06T07:15:43;16.03;;;8.03;;
19189;SDS011;9727;50.200;19.038;2023-04-06T07:18:10;13.50;;;7.57;;
19189;SDS011;9727;50.200;19.038;2023-04-06T07:20:38;14.30;;;7.47;;
19189;SDS011;9727;50.200;19.038;2023-04-06T07:23:07;15.83;;;8.90;;
19189;SDS011;9727;50.200;19.038;2023-04-06T07:25:34;16.77;;;7.73;;
19189;SDS011;9727;50.200;19.038;2023-04-06T07:28:00;15.97;;;7.73;;
19189;SDS011;9727;50.200;19.038;2023-04-06T07:30:27;26.00;;;8.80;;
19189;SDS011;9727;50.200;19.038;2023-04-06T07:32:54;17.37;;;9.23;;
19189;SDS011;9727;50.200;19.038;2023-04-06T07:35:26;17.00;;;9.00;;
19189;SDS011;9727;50.200;19.038;2023-04-06T07:37:53;20.83;;;10.00;;
19189;SDS011;9727;50.200;19.038;2023-04-06T07:40:21;19.13;;;10.27;;
19189;SDS011;9727;50.200;19.038;2023-04-06T07:42:48;20.20;;;9.63;;
19189;SDS011;9727;50.200;19.038;2023-04-06T07:45:15;16.73;;;8.90;;
19189;SDS011;9727;50.200;19.038;2023-04-06T07:47:42;15.73;;;8.67;;
19189;SDS011;9727;50.200;19.038;2023-04-06T07:50:09;22.00;;;8.87;;
19189;SDS011;9727;50.200;19.038;2023-04-06T07:52:36;15.53;;;8.40;;
19189;SDS011;9727;50.200;19.038;2023-04-06T07:55:05;15.90;;;7.73;;
19189;SDS011;9727;50.200;19.038;2023-04-06T08:00:15;13.43;;;7.27;;
19189;SDS011;9727;50.200;19.038;2023-04-06T08:02:50;16.83;;;8.07;;
19189;SDS011;9727;50.200;19.038;2023-04-06T08:05:16;12.83;;;7.33;;
19189;SDS011;9727;50.200;19.038;2023-04-06T08:07:44;12.40;;;7.20;;
19189;SDS011;9727;50.200;19.038;2023-04-06T08:10:11;15.97;;;7.80;;
19189;SDS011;9727;50.200;19.038;2023-04-06T08:12:40;14.10;;;7.70;;
19189;SDS011;9727;50.200;19.038;2023-04-06T08:15:07;15.50;;;7.80;;
19189;SDS011;9727;50.200;19.038;2023-04-06T08:17:48;11.83;;;7.63;;
19189;SDS011;9727;50.200;19.038;2023-04-06T08:20:15;16.70;;;8.20;;
19189;SDS011;9727;50.200;19.038;2023-04-06T08:22:41;16.83;;;7.43;;
19189;SDS011;9727;50.200;19.038;2023-04-06T08:25:08;14.50;;;8.03;;
19189;SDS011;9727;50.200;19.038;2023-04-06T08:27:35;13.27;;;8.20;;
19189;SDS011;9727;50.200;19.038;2023-04-06T08:30:02;12.53;;;7.33;;
19189;SDS011;9727;50.200;19.038;2023-04-06T08:32:30;11.10;;;7.47;;
19189;SDS011;9727;50.200;19.038;2023-04-06T08:34:58;12.37;;;6.83;;
19189;SDS011;9727;50.200;19.038;2023-04-06T08:37:24;13.70;;;7.33;;
19189;SDS011;9727;50.200;19.038;2023-04-06T08:39:51;12.33;;;7.80;;
19189;SDS011;9727;50.200;19.038;2023-04-06T08:42:19;13.93;;;7.93;;
19189;SDS011;9727;50.200;19.038;2023-04-06T08:44:46;13.37;;;7.47;;
19189;SDS011;9727;50.200;19.038;2023-04-06T08:47:13;13.23;;;7.60;;
19189;SDS011;9727;50.200;19.038;2023-04-06T08:49:42;16.83;;;8.17;;
19189;SDS011;9727;50.200;19.038;2023-04-06T08:52:13;15.50;;;8.77;;
19189;SDS011;9727;50.200;19.038;2023-04-06T08:54:42;28.43;;;12.53;;
19189;SDS011;9727;50.200;19.038;2023-04-06T08:57:08;17.53;;;9.90;;
19189;SDS011;9727;50.200;19.038;2023-04-06T08:59:36;17.03;;;8.97;;
19189;SDS011;9727;50.200;19.038;2023-04-06T09:02:04;13.07;;;7.83;;
19189;SDS011;9727;50.200;19.038;2023-04-06T09:04:31;13.87;;;8.20;;
19189;SDS011;9727;50.200;19.038;2023-04-06T09:06:59;16.07;;;9.50;;
19189;SDS011;9727;50.200;19.038;2023-04-06T09:09:28;17.10;;;8.97;;
19189;SDS011;9727;50.200;19.038;2023-04-06T09:11:54;15.87;;;8.50;;
19189;SDS011;9727;50.200;19.038;2023-04-06T09:14:33;15.87;;;9.60;;
19189;SDS011;9727;50.200;19.038;2023-04-06T09:17:01;17.07;;;9.03;;
19189;SDS011;9727;50.200;19.038;2023-04-06T09:19:27;15.53;;;9.37;;
19189;SDS011;9727;50.200;19.038;2023-04-06T09:22:00;13.90;;;8.70;;
19189;SDS011;9727;50.200;19.038;2023-04-06T09:24:38;19.03;;;9.67;;
19189;SDS011;9727;50.200;19.038;2023-04-06T09:27:05;18.20;;;9.47;;
19189;SDS011;9727;50.200;19.038;2023-04-06T09:29:31;21.23;;;10.33;;
19189;SDS011;9727;50.200;19.038;2023-04-06T09:32:02;19.13;;;10.60;;
19189;SDS011;9727;50.200;19.038;2023-04-06T09:34:29;20.90;;;10.47;;
19189;SDS011;9727;50.200;19.038;2023-04-06T09:36:56;20.40;;;10.90;;
19189;SDS011;9727;50.200;19.038;2023-04-06T09:39:24;19.40;;;11.07;;
19189;SDS011;9727;50.200;19.038;2023-04-06T09:41:52;23.77;;;11.87;;
19189;SDS011;9727;50.200;19.038;2023-04-06T09:44:22;21.17;;;11.07;;
19189;SDS011;9727;50.200;19.038;2023-04-06T09:46:50;20.13;;;11.63;;
19189;SDS011;9727;50.200;19.038;2023-04-06T09:49:18;24.53;;;11.90;;
19189;SDS011;9727;50.200;19.038;2023-04-06T09:51:56;24.23;;;12.30;;
19189;SDS011;9727;50.200;19.038;2023-04-06T09:54:26;22.63;;;11.47;;
19189;SDS011;9727;50.200;19.038;2023-04-06T09:56:56;17.57;;;9.77;;
19189;SDS011;9727;50.200;19.038;2023-04-06T09:59:25;16.03;;;9.93;;
19189;SDS011;9727;50.200;19.038;2023-04-06T10:02:05;16.93;;;10.67;;
19189;SDS011;9727;50.200;19.038;2023-04-06T10:04:37;14.20;;;9.40;;
19189;SDS011;9727;50.200;19.038;2023-04-06T10:07:05;18.37;;;9.50;;
19189;SDS011;9727;50.200;19.038;2023-04-06T10:09:33;17.30;;;10.00;;
19189;SDS011;9727;50.200;19.038;2023-04-06T10:12:04;16.47;;;9.10;;
19189;SDS011;9727;50.200;19.038;2023-04-06T10:14:32;14.97;;;8.80;;
19189;SDS011;9727;50.200;19.038;2023-04-06T10:17:05;14.93;;;9.20;;
19189;SDS011;9727;50.200;19.038;2023-04-06T10:19:34;18.37;;;9.70;;
19189;SDS011;9727;50.200;19.038;2023-04-06T10:22:04;15.63;;;9.40;;
19189;SDS011;9727;50.200;19.038;2023-04-06T10:24:32;16.60;;;9.17;;
19189;SDS011;9727;50.200;19.038;2023-04-06T10:27:00;17.03;;;8.93;;
19189;SDS011;9727;50.200;19.038;2023-04-06T10:29:31;12.83;;;7.57;;
19189;SDS011;9727;50.200;19.038;2023-04-06T10:32:09;18.07;;;7.97;;
19189;SDS011;9727;50.200;19.038;2023-04-06T10:34:35;15.50;;;8.20;;
19189;SDS011;9727;50.200;19.038;2023-04-06T10:37:10;14.00;;;8.50;;
19189;SDS011;9727;50.200;19.038;2023-04-06T10:39:45;15.87;;;8.07;;
19189;SDS011;9727;50.200;19.038;2023-04-06T10:42:12;13.27;;;7.63;;
19189;SDS011;9727;50.200;19.038;2023-04-06T10:44:43;13.07;;;7.67;;
19189;SDS011;9727;50.200;19.038;2023-04-06T10:47:15;11.93;;;8.23;;
19189;SDS011;9727;50.200;19.038;2023-04-06T10:49:42;14.93;;;7.97;;
19189;SDS011;9727;50.200;19.038;2023-04-06T10:52:08;15.17;;;8.73;;
19189;SDS011;9727;50.200;19.038;2023-04-06T10:54:38;15.43;;;8.83;;
19189;SDS011;9727;50.200;19.038;2023-04-06T10:57:07;13.77;;;8.60;;
19189;SDS011;9727;50.200;19.038;2023-04-06T10:59:33;15.40;;;7.70;;
19189;SDS011;9727;50.200;19.038;2023-04-06T11:02:01;12.57;;;8.10;;
19189;SDS011;9727;50.200;19.038;2023-04-06T11:04:28;13.07;;;8.13;;
19189;SDS011;9727;50.200;19.038;2023-04-06T11:06:55;15.40;;;8.00;;
19189;SDS011;9727;50.200;19.038;2023-04-06T11:09:25;13.43;;;8.23;;
19189;SDS011;9727;50.200;19.038;2023-04-06T11:11:52;13.20;;;7.77;;
19189;SDS011;9727;50.200;19.038;2023-04-06T11:14:20;12.23;;;7.87;;
19189;SDS011;9727;50.200;19.038;2023-04-06T11:16:47;13.10;;;7.63;;
19189;SDS011;9727;50.200;19.038;2023-04-06T11:19:16;13.63;;;7.73;;
19189;SDS011;9727;50.200;19.038;2023-04-06T11:21:44;11.97;;;7.20;;
19189;SDS011;9727;50.200;19.038;2023-04-06T11:24:13;13.70;;;7.30;;
19189;SDS011;9727;50.200;19.038;2023-04-06T11:26:40;10.97;;;6.83;;
19189;SDS011;9727;50.200;19.038;2023-04-06T11:29:09;12.43;;;7.07;;
19189;SDS011;9727;50.200;19.038;2023-04-06T11:31:45;11.33;;;6.83;;
19189;SDS011;9727;50.200;19.038;2023-04-06T11:34:13;14.73;;;7.30;;
19189;SDS011;9727;50.200;19.038;2023-04-06T11:36:42;11.63;;;7.43;;
19189;SDS011;9727;50.200;19.038;2023-04-06T11:39:09;12.77;;;7.17;;
19189;SDS011;9727;50.200;19.038;2023-04-06T11:41:36;10.60;;;7.20;;
19189;SDS011;9727;50.200;19.038;2023-04-06T11:44:05;13.13;;;6.20;;
19189;SDS011;9727;50.200;19.038;2023-04-06T11:46:35;9.97;;;6.17;;
19189;SDS011;9727;50.200;19.038;2023-04-06T11:49:06;12.37;;;6.03;;
19189;SDS011;9727;50.200;19.038;2023-04-06T11:51:36;11.43;;;6.13;;
19189;SDS011;9727;50.200;19.038;2023-04-06T11:54:06;11.87;;;6.63;;
19189;SDS011;9727;50.200;19.038;2023-04-06T11:56:33;9.70;;;5.70;;
19189;SDS011;9727;50.200;19.038;2023-04-06T11:58:59;13.80;;;6.67;;
19189;SDS011;9727;50.200;19.038;2023-04-06T12:01:28;10.83;;;6.53;;
19189;SDS011;9727;50.200;19.038;2023-04-06T12:03:55;11.10;;;6.30;;
19189;SDS011;9727;50.200;19.038;2023-04-06T12:06:24;12.47;;;6.30;;
19189;SDS011;9727;50.200;19.038;2023-04-06T12:08:51;11.07;;;6.27;;
19189;SDS011;9727;50.200;19.038;2023-04-06T12:11:19;8.90;;;5.73;;
19189;SDS011;9727;50.200;19.038;2023-04-06T12:13:54;10.73;;;6.33;;
19189;SDS011;9727;50.200;19.038;2023-04-06T12:16:21;12.67;;;6.10;;
19189;SDS011;9727;50.200;19.038;2023-04-06T12:18:47;10.93;;;6.50;;
19189;SDS011;9727;50.200;19.038;2023-04-06T12:21:19;10.47;;;6.07;;
19189;SDS011;9727;50.200;19.038;2023-04-06T12:23:47;10.23;;;5.20;;
19189;SDS011;9727;50.200;19.038;2023-04-06T12:26:14;9.47;;;5.60;;
19189;SDS011;9727;50.200;19.038;2023-04-06T12:28:42;11.53;;;5.60;;
19189;SDS011;9727;50.200;19.038;2023-04-06T12:31:14;9.73;;;6.23;;
19189;SDS011;9727;50.200;19.038;2023-04-06T12:33:40;17.17;;;9.20;;
19189;SDS011;9727;50.200;19.038;2023-04-06T12:36:11;13.90;;;7.27;;
19189;SDS011;9727;50.200;19.038;2023-04-06T12:38:38;11.13;;;6.63;;
19189;SDS011;9727;50.200;19.038;2023-04-06T12:41:06;12.33;;;6.50;;
19189;SDS011;9727;50.200;19.038;2023-04-06T12:43:32;11.77;;;6.90;;
19189;SDS011;9727;50.200;19.038;2023-04-06T12:46:01;14.10;;;7.30;;
19189;SDS011;9727;50.200;19.038;2023-04-06T12:48:27;12.27;;;7.23;;
19189;SDS011;9727;50.200;19.038;2023-04-06T12:50:56;12.50;;;7.00;;
19189;SDS011;9727;50.200;19.038;2023-04-06T12:53:24;13.07;;;7.70;;
19189;SDS011;9727;50.200;19.038;2023-04-06T12:55:53;10.27;;;6.70;;
19189;SDS011;9727;50.200;19.038;2023-04-06T12:58:19;11.27;;;6.77;;
19189;SDS011;9727;50.200;19.038;2023-04-06T13:00:46;11.73;;;6.93;;
19189;SDS011;9727;50.200;19.038;2023-04-06T13:03:15;12.60;;;6.37;;
19189;SDS011;9727;50.200;19.038;2023-04-06T13:05:43;15.63;;;6.80;;
19189;SDS011;9727;50.200;19.038;2023-04-06T13:08:10;10.30;;;6.30;;
19189;SDS011;9727;50.200;19.038;2023-04-06T13:10:42;9.60;;;5.80;;
19189;SDS011;9727;50.200;19.038;2023-04-06T13:13:09;10.07;;;6.00;;
19189;SDS011;9727;50.200;19.038;2023-04-06T13:15:36;12.13;;;6.17;;
19189;SDS011;9727;50.200;19.038;2023-04-06T13:18:04;9.33;;;6.00;;
19189;SDS011;9727;50.200;19.038;2023-04-06T13:20:42;12.17;;;6.10;;
19189;SDS011;9727;50.200;19.038;2023-04-06T13:23:15;13.13;;;7.20;;
19189;SDS011;9727;50.200;19.038;2023-04-06T13:25:42;12.00;;;6.70;;
19189;SDS011;9727;50.200;19.038;2023-04-06T13:28:17;13.33;;;7.20;;
19189;SDS011;9727;50.200;19.038;2023-04-06T13:30:47;13.33;;;7.77;;
19189;SDS011;9727;50.200;19.038;2023-04-06T13:33:14;12.17;;;7.40;;
19189;SDS011;9727;50.200;19.038;2023-04-06T13:35:45;14.47;;;8.57;;
19189;SDS011;9727;50.200;19.038;2023-04-06T13:38:12;11.30;;;7.57;;
19189;SDS011;9727;50.200;19.038;2023-04-06T13:40:38;13.97;;;8.80;;
19189;SDS011;9727;50.200;19.038;2023-04-06T13:43:05;12.60;;;8.37;;
19189;SDS011;9727;50.200;19.038;2023-04-06T13:45:32;12.30;;;8.33;;
19189;SDS011;9727;50.200;19.038;2023-04-06T13:47:59;15.47;;;9.37;;
19189;SDS011;9727;50.200;19.038;2023-04-06T13:50:25;15.07;;;9.97;;
19189;SDS011;9727;50.200;19.038;2023-04-06T13:52:53;19.43;;;11.83;;
19189;SDS011;9727;50.200;19.038;2023-04-06T13:55:20;21.57;;;11.13;;
19189;SDS011;9727;50.200;19.038;2023-04-06T13:57:57;19.03;;;11.60;;
19189;SDS011;9727;50.200;19.038;2023-04-06T14:00:24;18.87;;;11.23;;
19189;SDS011;9727;50.200;19.038;2023-04-06T14:02:50;19.27;;;12.27;;
19189;SDS011;9727;50.200;19.038;2023-04-06T14:05:19;16.63;;;12.20;;
19189;SDS011;9727;50.200;19.038;2023-04-06T14:07:46;19.37;;;12.27;;
19189;SDS011;9727;50.200;19.038;2023-04-06T14:10:16;19.83;;;12.93;;
19189;SDS011;9727;50.200;19.038;2023-04-06T14:12:43;21.43;;;13.03;;
19189;SDS011;9727;50.200;19.038;2023-04-06T14:15:11;24.07;;;12.97;;
19189;SDS011;9727;50.200;19.038;2023-04-06T14:17:49;22.93;;;13.07;;
19189;SDS011;9727;50.200;19.038;2023-04-06T14:20:19;20.70;;;12.93;;
19189;SDS011;9727;50.200;19.038;2023-04-06T14:22:50;19.37;;;12.27;;
19189;SDS011;9727;50.200;19.038;2023-04-06T14:25:19;19.03;;;11.60;;
19189;SDS011;9727;50.200;19.038;2023-04-06T14:27:45;22.80;;;13.53;;
19189;SDS011;9727;50.200;19.038;2023-04-06T14:30:12;28.37;;;13.50;;
19189;SDS011;9727;50.200;19.038;2023-04-06T14:32:39;21.10;;;13.13;;